sensor_id;sensor_type;location;lat;lon;timestamp;P1;durP1;ratioP1;P2;durP2;ratioP2
52112;SDS011;38109;49.488;31.988;2023-06-10T00:01:32;4.40;;;3.53;;
52112;SDS011;38109;49.488;31.988;2023-06-10T00:04:01;5.47;;;3.60;;
52112;SDS011;38109;49.488;31.988;2023-06-10T00:06:28;6.25;;;3.45;;
52112;SDS011;38109;49.488;31.988;2023-06-10T00:09:07;4.00;;;3.53;;
52112;SDS011;38109;49.488;31.988;2023-06-10T00:11:36;4.45;;;3.60;;
52112;SDS011;38109;49.488;31.988;2023-06-10T00:14:02;4.68;;;3.50;;
52112;SDS011;38109;49.488;31.988;2023-06-10T00:16:28;4.97;;;3.83;;
52112;SDS011;38109;49.488;31.988;2023-06-10T00:18:55;4.82;;;3.80;;
52112;SDS011;38109;49.488;31.988;2023-06-10T00:21:25;4.05;;;3.47;;
52112;SDS011;38109;49.488;31.988;2023-06-10T00:23:51;4.70;;;3.72;;
52112;SDS011;38109;49.488;31.988;2023-06-10T00:26:17;3.95;;;3.33;;
52112;SDS011;38109;49.488;31.988;2023-06-10T00:28:43;4.82;;;3.75;;
52112;SDS011;38109;49.488;31.988;2023-06-10T00:31:10;4.10;;;3.70;;
52112;SDS011;38109;49.488;31.988;2023-06-10T00:33:35;5.25;;;4.30;;
52112;SDS011;38109;49.488;31.988;2023-06-10T00:36:01;5.32;;;4.32;;
52112;SDS011;38109;49.488;31.988;2023-06-10T00:38:27;4.72;;;3.90;;
52112;SDS011;38109;49.488;31.988;2023-06-10T00:40:52;5.30;;;3.90;;
52112;SDS011;38109;49.488;31.988;2023-06-10T00:43:18;4.45;;;4.03;;
52112;SDS011;38109;49.488;31.988;2023-06-10T00:45:44;4.90;;;4.40;;
52112;SDS011;38109;49.488;31.988;2023-06-10T00:48:09;5.47;;;4.40;;
52112;SDS011;38109;49.488;31.988;2023-06-10T00:50:35;5.07;;;4.07;;
52112;SDS011;38109;49.488;31.988;2023-06-10T00:53:04;6.30;;;4.40;;
52112;SDS011;38109;49.488;31.988;2023-06-10T00:55:31;6.13;;;4.35;;
52112;SDS011;38109;49.488;31.988;2023-06-10T00:57:57;5.10;;;4.22;;
52112;SDS011;38109;49.488;31.988;2023-06-10T01:00:23;5.88;;;4.03;;
52112;SDS011;38109;49.488;31.988;2023-06-10T01:02:49;5.45;;;4.50;;
52112;SDS011;38109;49.488;31.988;2023-06-10T01:05:17;5.60;;;4.93;;
52112;SDS011;38109;49.488;31.988;2023-06-10T01:07:47;5.35;;;4.20;;
52112;SDS011;38109;49.488;31.988;2023-06-10T01:13:06;5.93;;;4.45;;
52112;SDS011;38109;49.488;31.988;2023-06-10T01:15:36;4.72;;;4.03;;
52112;SDS011;38109;49.488;31.988;2023-06-10T01:18:07;5.68;;;4.70;;
52112;SDS011;38109;49.488;31.988;2023-06-10T01:20:34;5.03;;;4.30;;
52112;SDS011;38109;49.488;31.988;2023-06-10T01:23:05;4.97;;;4.13;;
52112;SDS011;38109;49.488;31.988;2023-06-10T01:25:32;5.22;;;4.40;;
52112;SDS011;38109;49.488;31.988;2023-06-10T01:28:10;5.88;;;4.45;;
52112;SDS011;38109;49.488;31.988;2023-06-10T01:33:29;5.90;;;5.07;;
52112;SDS011;38109;49.488;31.988;2023-06-10T01:35:58;6.28;;;4.80;;
52112;SDS011;38109;49.488;31.988;2023-06-10T01:38:26;6.47;;;5.20;;
52112;SDS011;38109;49.488;31.988;2023-06-10T01:40:53;6.53;;;4.70;;
52112;SDS011;38109;49.488;31.988;2023-06-10T01:43:21;6.57;;;4.72;;
52112;SDS011;38109;49.488;31.988;2023-06-10T01:45:47;5.22;;;4.43;;
52112;SDS011;38109;49.488;31.988;2023-06-10T01:48:13;9.10;;;5.00;;
52112;SDS011;38109;49.488;31.988;2023-06-10T01:50:38;6.22;;;4.50;;
52112;SDS011;38109;49.488;31.988;2023-06-10T01:53:04;5.15;;;4.38;;
52112;SDS011;38109;49.488;31.988;2023-06-10T01:55:30;6.43;;;4.75;;
52112;SDS011;38109;49.488;31.988;2023-06-10T01:57:56;5.28;;;4.25;;
52112;SDS011;38109;49.488;31.988;2023-06-10T02:00:22;5.53;;;4.20;;
52112;SDS011;38109;49.488;31.988;2023-06-10T02:02:48;8.00;;;4.15;;
52112;SDS011;38109;49.488;31.988;2023-06-10T02:05:13;6.18;;;4.30;;
52112;SDS011;38109;49.488;31.988;2023-06-10T02:07:39;6.13;;;4.20;;
52112;SDS011;38109;49.488;31.988;2023-06-10T02:10:05;4.90;;;4.28;;
52112;SDS011;38109;49.488;31.988;2023-06-10T02:12:32;4.78;;;4.28;;
52112;SDS011;38109;49.488;31.988;2023-06-10T02:14:57;6.43;;;4.30;;
52112;SDS011;38109;49.488;31.988;2023-06-10T02:17:23;5.10;;;4.18;;
52112;SDS011;38109;49.488;31.988;2023-06-10T02:19:49;5.05;;;4.18;;
52112;SDS011;38109;49.488;31.988;2023-06-10T02:22:19;4.82;;;4.13;;
52112;SDS011;38109;49.488;31.988;2023-06-10T02:24:45;4.93;;;4.18;;
52112;SDS011;38109;49.488;31.988;2023-06-10T02:27:11;5.30;;;4.55;;
52112;SDS011;38109;49.488;31.988;2023-06-10T02:29:36;5.18;;;4.57;;
52112;SDS011;38109;49.488;31.988;2023-06-10T02:32:02;6.45;;;4.63;;
52112;SDS011;38109;49.488;31.988;2023-06-10T02:34:28;6.20;;;4.55;;
52112;SDS011;38109;49.488;31.988;2023-06-10T02:36:54;5.70;;;4.57;;
52112;SDS011;38109;49.488;31.988;2023-06-10T02:39:20;6.38;;;4.57;;
52112;SDS011;38109;49.488;31.988;2023-06-10T02:41:46;7.90;;;4.78;;
52112;SDS011;38109;49.488;31.988;2023-06-10T02:44:12;5.78;;;4.47;;
52112;SDS011;38109;49.488;31.988;2023-06-10T02:46:37;5.35;;;4.57;;
52112;SDS011;38109;49.488;31.988;2023-06-10T02:49:03;6.75;;;4.28;;
52112;SDS011;38109;49.488;31.988;2023-06-10T02:51:29;5.57;;;4.85;;
52112;SDS011;38109;49.488;31.988;2023-06-10T02:53:55;4.95;;;4.10;;
52112;SDS011;38109;49.488;31.988;2023-06-10T02:56:20;6.57;;;4.38;;
52112;SDS011;38109;49.488;31.988;2023-06-10T02:58:46;5.85;;;4.38;;
52112;SDS011;38109;49.488;31.988;2023-06-10T03:01:14;5.53;;;4.40;;
52112;SDS011;38109;49.488;31.988;2023-06-10T03:03:40;5.18;;;4.32;;
52112;SDS011;38109;49.488;31.988;2023-06-10T03:06:08;5.68;;;4.68;;
52112;SDS011;38109;49.488;31.988;2023-06-10T03:08:37;5.97;;;4.90;;
52112;SDS011;38109;49.488;31.988;2023-06-10T03:11:03;6.15;;;4.88;;
52112;SDS011;38109;49.488;31.988;2023-06-10T03:13:29;5.40;;;4.28;;
52112;SDS011;38109;49.488;31.988;2023-06-10T03:15:55;6.03;;;4.85;;
52112;SDS011;38109;49.488;31.988;2023-06-10T03:18:20;5.57;;;4.20;;
52112;SDS011;38109;49.488;31.988;2023-06-10T03:20:48;5.10;;;3.95;;
52112;SDS011;38109;49.488;31.988;2023-06-10T03:23:13;5.32;;;4.18;;
52112;SDS011;38109;49.488;31.988;2023-06-10T03:25:40;4.68;;;4.28;;
52112;SDS011;38109;49.488;31.988;2023-06-10T03:28:06;5.25;;;4.35;;
52112;SDS011;38109;49.488;31.988;2023-06-10T03:30:31;5.57;;;4.20;;
52112;SDS011;38109;49.488;31.988;2023-06-10T03:32:57;6.20;;;4.30;;
52112;SDS011;38109;49.488;31.988;2023-06-10T03:35:23;5.55;;;4.13;;
52112;SDS011;38109;49.488;31.988;2023-06-10T03:37:48;6.07;;;4.43;;
52112;SDS011;38109;49.488;31.988;2023-06-10T03:40:14;5.03;;;4.35;;
52112;SDS011;38109;49.488;31.988;2023-06-10T03:42:40;6.10;;;4.97;;
52112;SDS011;38109;49.488;31.988;2023-06-10T03:45:05;5.13;;;4.63;;
52112;SDS011;38109;49.488;31.988;2023-06-10T03:47:35;6.38;;;4.72;;
52112;SDS011;38109;49.488;31.988;2023-06-10T03:50:02;5.63;;;4.80;;
52112;SDS011;38109;49.488;31.988;2023-06-10T03:52:31;6.32;;;4.90;;
52112;SDS011;38109;49.488;31.988;2023-06-10T03:54:56;6.38;;;4.57;;
52112;SDS011;38109;49.488;31.988;2023-06-10T03:57:22;4.70;;;4.15;;
52112;SDS011;38109;49.488;31.988;2023-06-10T03:59:48;7.55;;;4.80;;
52112;SDS011;38109;49.488;31.988;2023-06-10T04:02:13;5.75;;;4.57;;
52112;SDS011;38109;49.488;31.988;2023-06-10T04:04:39;5.95;;;4.30;;
52112;SDS011;38109;49.488;31.988;2023-06-10T04:07:06;6.55;;;4.95;;
52112;SDS011;38109;49.488;31.988;2023-06-10T04:09:33;5.85;;;4.20;;
52112;SDS011;38109;49.488;31.988;2023-06-10T04:11:59;5.68;;;4.55;;
52112;SDS011;38109;49.488;31.988;2023-06-10T04:14:24;7.93;;;4.55;;
52112;SDS011;38109;49.488;31.988;2023-06-10T04:16:50;5.10;;;4.47;;
52112;SDS011;38109;49.488;31.988;2023-06-10T04:19:16;5.65;;;4.55;;
52112;SDS011;38109;49.488;31.988;2023-06-10T04:21:42;4.75;;;4.25;;
52112;SDS011;38109;49.488;31.988;2023-06-10T04:24:07;6.00;;;4.63;;
52112;SDS011;38109;49.488;31.988;2023-06-10T04:26:35;6.80;;;4.68;;
52112;SDS011;38109;49.488;31.988;2023-06-10T04:29:01;5.18;;;4.53;;
52112;SDS011;38109;49.488;31.988;2023-06-10T04:31:26;4.78;;;4.20;;
52112;SDS011;38109;49.488;31.988;2023-06-10T04:33:52;6.13;;;4.30;;
52112;SDS011;38109;49.488;31.988;2023-06-10T04:36:18;6.10;;;4.85;;
52112;SDS011;38109;49.488;31.988;2023-06-10T04:38:44;5.40;;;4.57;;
52112;SDS011;38109;49.488;31.988;2023-06-10T04:41:09;4.80;;;3.58;;
52112;SDS011;38109;49.488;31.988;2023-06-10T04:43:35;6.93;;;4.97;;
52112;SDS011;38109;49.488;31.988;2023-06-10T04:46:01;5.03;;;4.28;;
52112;SDS011;38109;49.488;31.988;2023-06-10T04:48:27;5.93;;;4.78;;
52112;SDS011;38109;49.488;31.988;2023-06-10T04:50:53;6.28;;;4.88;;
52112;SDS011;38109;49.488;31.988;2023-06-10T04:53:18;5.60;;;4.40;;
52112;SDS011;38109;49.488;31.988;2023-06-10T04:55:45;5.65;;;4.38;;
52112;SDS011;38109;49.488;31.988;2023-06-10T04:58:11;4.63;;;3.65;;
52112;SDS011;38109;49.488;31.988;2023-06-10T05:00:37;5.78;;;3.50;;
52112;SDS011;38109;49.488;31.988;2023-06-10T05:03:03;4.97;;;3.55;;
52112;SDS011;38109;49.488;31.988;2023-06-10T05:05:28;5.55;;;4.07;;
52112;SDS011;38109;49.488;31.988;2023-06-10T05:07:54;3.97;;;3.28;;
52112;SDS011;38109;49.488;31.988;2023-06-10T05:10:19;3.90;;;2.90;;
52112;SDS011;38109;49.488;31.988;2023-06-10T05:12:45;3.55;;;2.83;;
52112;SDS011;38109;49.488;31.988;2023-06-10T05:15:11;4.07;;;3.17;;
52112;SDS011;38109;49.488;31.988;2023-06-10T05:17:36;3.22;;;2.58;;
52112;SDS011;38109;49.488;31.988;2023-06-10T05:20:03;3.72;;;2.72;;
52112;SDS011;38109;49.488;31.988;2023-06-10T05:22:29;4.03;;;2.83;;
52112;SDS011;38109;49.488;31.988;2023-06-10T05:24:54;4.35;;;2.92;;
52112;SDS011;38109;49.488;31.988;2023-06-10T05:27:20;3.10;;;2.60;;
52112;SDS011;38109;49.488;31.988;2023-06-10T05:29:47;3.63;;;2.80;;
52112;SDS011;38109;49.488;31.988;2023-06-10T05:32:12;3.47;;;2.67;;
52112;SDS011;38109;49.488;31.988;2023-06-10T05:34:38;5.10;;;3.08;;
52112;SDS011;38109;49.488;31.988;2023-06-10T05:37:04;3.75;;;3.03;;
52112;SDS011;38109;49.488;31.988;2023-06-10T05:39:30;3.95;;;3.13;;
52112;SDS011;38109;49.488;31.988;2023-06-10T05:41:55;3.85;;;3.03;;
52112;SDS011;38109;49.488;31.988;2023-06-10T05:44:23;3.47;;;3.00;;
52112;SDS011;38109;49.488;31.988;2023-06-10T05:46:50;5.60;;;2.95;;
52112;SDS011;38109;49.488;31.988;2023-06-10T05:49:15;3.83;;;3.00;;
52112;SDS011;38109;49.488;31.988;2023-06-10T05:51:41;3.65;;;3.10;;
52112;SDS011;38109;49.488;31.988;2023-06-10T05:54:07;3.40;;;2.90;;
52112;SDS011;38109;49.488;31.988;2023-06-10T05:56:32;5.47;;;3.28;;
52112;SDS011;38109;49.488;31.988;2023-06-10T05:58:59;4.18;;;3.05;;
52112;SDS011;38109;49.488;31.988;2023-06-10T06:01:24;2.95;;;2.53;;
52112;SDS011;38109;49.488;31.988;2023-06-10T06:03:50;4.93;;;3.28;;
52112;SDS011;38109;49.488;31.988;2023-06-10T06:06:16;5.13;;;3.00;;
52112;SDS011;38109;49.488;31.988;2023-06-10T06:08:41;3.63;;;3.10;;
52112;SDS011;38109;49.488;31.988;2023-06-10T06:11:07;4.80;;;3.53;;
52112;SDS011;38109;49.488;31.988;2023-06-10T06:13:34;4.07;;;2.80;;
52112;SDS011;38109;49.488;31.988;2023-06-10T06:15:59;3.90;;;2.90;;
52112;SDS011;38109;49.488;31.988;2023-06-10T06:18:25;3.22;;;2.92;;
52112;SDS011;38109;49.488;31.988;2023-06-10T06:20:50;5.15;;;3.33;;
52112;SDS011;38109;49.488;31.988;2023-06-10T06:23:16;4.05;;;3.15;;
52112;SDS011;38109;49.488;31.988;2023-06-10T06:25:42;5.70;;;3.47;;
52112;SDS011;38109;49.488;31.988;2023-06-10T06:28:10;4.72;;;2.85;;
52112;SDS011;38109;49.488;31.988;2023-06-10T06:30:35;4.88;;;3.15;;
52112;SDS011;38109;49.488;31.988;2023-06-10T06:33:01;6.82;;;3.50;;
52112;SDS011;38109;49.488;31.988;2023-06-10T06:35:27;4.93;;;3.72;;
52112;SDS011;38109;49.488;31.988;2023-06-10T06:37:55;4.13;;;3.38;;
52112;SDS011;38109;49.488;31.988;2023-06-10T06:40:21;5.45;;;3.20;;
52112;SDS011;38109;49.488;31.988;2023-06-10T06:42:47;3.95;;;3.50;;
52112;SDS011;38109;49.488;31.988;2023-06-10T06:45:13;3.50;;;2.92;;
52112;SDS011;38109;49.488;31.988;2023-06-10T06:47:38;4.45;;;3.35;;
52112;SDS011;38109;49.488;31.988;2023-06-10T06:50:04;5.00;;;3.55;;
52112;SDS011;38109;49.488;31.988;2023-06-10T06:52:30;3.25;;;2.95;;
52112;SDS011;38109;49.488;31.988;2023-06-10T06:54:56;6.47;;;3.30;;
52112;SDS011;38109;49.488;31.988;2023-06-10T06:57:21;3.17;;;2.88;;
52112;SDS011;38109;49.488;31.988;2023-06-10T06:59:48;9.80;;;3.40;;
52112;SDS011;38109;49.488;31.988;2023-06-10T07:02:13;4.22;;;3.15;;
52112;SDS011;38109;49.488;31.988;2023-06-10T07:04:39;3.25;;;2.95;;
52112;SDS011;38109;49.488;31.988;2023-06-10T07:07:07;6.05;;;2.92;;
52112;SDS011;38109;49.488;31.988;2023-06-10T07:09:33;4.35;;;3.20;;
52112;SDS011;38109;49.488;31.988;2023-06-10T07:11:59;4.28;;;3.20;;
52112;SDS011;38109;49.488;31.988;2023-06-10T07:14:25;6.43;;;3.42;;
52112;SDS011;38109;49.488;31.988;2023-06-10T07:16:51;4.82;;;3.15;;
52112;SDS011;38109;49.488;31.988;2023-06-10T07:19:16;3.78;;;3.17;;
52112;SDS011;38109;49.488;31.988;2023-06-10T07:21:42;4.55;;;3.15;;
52112;SDS011;38109;49.488;31.988;2023-06-10T07:24:08;4.28;;;3.20;;
52112;SDS011;38109;49.488;31.988;2023-06-10T07:26:34;4.32;;;3.10;;
52112;SDS011;38109;49.488;31.988;2023-06-10T07:28:59;3.58;;;2.83;;
52112;SDS011;38109;49.488;31.988;2023-06-10T07:31:25;3.00;;;2.65;;
52112;SDS011;38109;49.488;31.988;2023-06-10T07:33:50;4.80;;;2.78;;
52112;SDS011;38109;49.488;31.988;2023-06-10T07:36:16;3.25;;;2.88;;
52112;SDS011;38109;49.488;31.988;2023-06-10T07:38:42;3.65;;;2.55;;
52112;SDS011;38109;49.488;31.988;2023-06-10T07:41:08;3.00;;;2.70;;
52112;SDS011;38109;49.488;31.988;2023-06-10T07:43:34;3.03;;;2.63;;
52112;SDS011;38109;49.488;31.988;2023-06-10T07:45:59;2.97;;;2.70;;
52112;SDS011;38109;49.488;31.988;2023-06-10T07:48:25;2.80;;;2.50;;
52112;SDS011;38109;49.488;31.988;2023-06-10T07:50:51;2.92;;;2.67;;
52112;SDS011;38109;49.488;31.988;2023-06-10T07:53:17;4.00;;;3.10;;
52112;SDS011;38109;49.488;31.988;2023-06-10T07:55:43;3.83;;;3.13;;
52112;SDS011;38109;49.488;31.988;2023-06-10T07:58:09;7.82;;;3.35;;
52112;SDS011;38109;49.488;31.988;2023-06-10T08:00:35;3.97;;;2.83;;
52112;SDS011;38109;49.488;31.988;2023-06-10T08:03:00;4.22;;;2.80;;
52112;SDS011;38109;49.488;31.988;2023-06-10T08:05:26;4.35;;;2.50;;
52112;SDS011;38109;49.488;31.988;2023-06-10T08:07:52;4.40;;;2.53;;
52112;SDS011;38109;49.488;31.988;2023-06-10T08:10:17;2.65;;;2.20;;
52112;SDS011;38109;49.488;31.988;2023-06-10T08:12:43;2.85;;;2.47;;
52112;SDS011;38109;49.488;31.988;2023-06-10T08:15:09;2.53;;;2.33;;
52112;SDS011;38109;49.488;31.988;2023-06-10T08:17:35;3.55;;;2.50;;
52112;SDS011;38109;49.488;31.988;2023-06-10T08:20:01;2.60;;;2.38;;
52112;SDS011;38109;49.488;31.988;2023-06-10T08:22:27;3.20;;;2.70;;
52112;SDS011;38109;49.488;31.988;2023-06-10T08:24:54;2.63;;;2.42;;
52112;SDS011;38109;49.488;31.988;2023-06-10T08:27:21;3.40;;;2.55;;
52112;SDS011;38109;49.488;31.988;2023-06-10T08:29:46;3.33;;;2.80;;
52112;SDS011;38109;49.488;31.988;2023-06-10T08:32:12;3.15;;;2.67;;
52112;SDS011;38109;49.488;31.988;2023-06-10T08:34:38;3.38;;;2.35;;
52112;SDS011;38109;49.488;31.988;2023-06-10T08:37:04;2.78;;;2.50;;
52112;SDS011;38109;49.488;31.988;2023-06-10T08:39:30;3.03;;;2.70;;
52112;SDS011;38109;49.488;31.988;2023-06-10T08:42:02;2.92;;;2.60;;
52112;SDS011;38109;49.488;31.988;2023-06-10T08:44:40;3.00;;;2.72;;
52112;SDS011;38109;49.488;31.988;2023-06-10T08:47:16;3.92;;;2.83;;
52112;SDS011;38109;49.488;31.988;2023-06-10T08:49:45;2.85;;;2.45;;
52112;SDS011;38109;49.488;31.988;2023-06-10T08:52:16;3.72;;;2.80;;
52112;SDS011;38109;49.488;31.988;2023-06-10T08:54:46;3.03;;;2.60;;
52112;SDS011;38109;49.488;31.988;2023-06-10T08:57:24;3.10;;;2.80;;
52112;SDS011;38109;49.488;31.988;2023-06-10T08:59:50;3.78;;;2.70;;
52112;SDS011;38109;49.488;31.988;2023-06-10T09:02:17;2.50;;;2.30;;
52112;SDS011;38109;49.488;31.988;2023-06-10T09:04:46;2.72;;;2.53;;
52112;SDS011;38109;49.488;31.988;2023-06-10T09:07:11;3.00;;;2.70;;
52112;SDS011;38109;49.488;31.988;2023-06-10T09:09:39;4.75;;;2.70;;
52112;SDS011;38109;49.488;31.988;2023-06-10T09:12:07;3.67;;;2.53;;
52112;SDS011;38109;49.488;31.988;2023-06-10T09:14:32;3.83;;;2.80;;
52112;SDS011;38109;49.488;31.988;2023-06-10T09:16:58;2.97;;;2.67;;
52112;SDS011;38109;49.488;31.988;2023-06-10T09:19:25;3.55;;;3.00;;
52112;SDS011;38109;49.488;31.988;2023-06-10T09:21:52;3.92;;;2.70;;
52112;SDS011;38109;49.488;31.988;2023-06-10T09:24:17;3.28;;;2.80;;
52112;SDS011;38109;49.488;31.988;2023-06-10T09:26:43;3.45;;;2.45;;
52112;SDS011;38109;49.488;31.988;2023-06-10T09:29:10;3.78;;;2.75;;
52112;SDS011;38109;49.488;31.988;2023-06-10T09:31:37;3.30;;;3.00;;
52112;SDS011;38109;49.488;31.988;2023-06-10T09:34:08;3.22;;;2.70;;
52112;SDS011;38109;49.488;31.988;2023-06-10T09:36:35;2.85;;;2.60;;
52112;SDS011;38109;49.488;31.988;2023-06-10T09:39:01;3.13;;;2.50;;
52112;SDS011;38109;49.488;31.988;2023-06-10T09:41:39;2.85;;;2.38;;
52112;SDS011;38109;49.488;31.988;2023-06-10T09:44:18;3.30;;;2.80;;
52112;SDS011;38109;49.488;31.988;2023-06-10T09:46:45;2.60;;;2.40;;
52112;SDS011;38109;49.488;31.988;2023-06-10T09:49:12;2.90;;;2.40;;
52112;SDS011;38109;49.488;31.988;2023-06-10T09:51:37;4.20;;;2.63;;
52112;SDS011;38109;49.488;31.988;2023-06-10T09:54:17;3.65;;;2.38;;
52112;SDS011;38109;49.488;31.988;2023-06-10T09:56:43;3.08;;;2.42;;
52112;SDS011;38109;49.488;31.988;2023-06-10T09:59:12;3.42;;;2.80;;
52112;SDS011;38109;49.488;31.988;2023-06-10T10:01:38;3.05;;;2.75;;
52112;SDS011;38109;49.488;31.988;2023-06-10T10:04:04;2.97;;;2.65;;
52112;SDS011;38109;49.488;31.988;2023-06-10T10:06:30;3.30;;;2.50;;
52112;SDS011;38109;49.488;31.988;2023-06-10T10:08:56;2.60;;;2.40;;
52112;SDS011;38109;49.488;31.988;2023-06-10T10:11:21;3.72;;;2.70;;
52112;SDS011;38109;49.488;31.988;2023-06-10T10:13:48;2.97;;;2.60;;
52112;SDS011;38109;49.488;31.988;2023-06-10T10:16:23;2.58;;;2.38;;
52112;SDS011;38109;49.488;31.988;2023-06-10T10:18:55;2.70;;;2.30;;
52112;SDS011;38109;49.488;31.988;2023-06-10T10:21:26;2.70;;;2.42;;
52112;SDS011;38109;49.488;31.988;2023-06-10T10:24:03;2.63;;;2.33;;
52112;SDS011;38109;49.488;31.988;2023-06-10T10:26:46;2.83;;;2.55;;
52112;SDS011;38109;49.488;31.988;2023-06-10T10:29:16;2.70;;;2.50;;
52112;SDS011;38109;49.488;31.988;2023-06-10T10:31:50;2.60;;;2.40;;
52112;SDS011;38109;49.488;31.988;2023-06-10T10:34:21;2.30;;;2.10;;
52112;SDS011;38109;49.488;31.988;2023-06-10T10:36:55;2.60;;;2.30;;
52112;SDS011;38109;49.488;31.988;2023-06-10T10:39:21;2.58;;;2.38;;
52112;SDS011;38109;49.488;31.988;2023-06-10T10:41:47;2.45;;;2.13;;
52112;SDS011;38109;49.488;31.988;2023-06-10T10:44:14;2.22;;;2.03;;
52112;SDS011;38109;49.488;31.988;2023-06-10T10:46:41;2.47;;;2.10;;
52112;SDS011;38109;49.488;31.988;2023-06-10T10:49:09;2.50;;;2.20;;
52112;SDS011;38109;49.488;31.988;2023-06-10T10:51:37;2.88;;;2.20;;
52112;SDS011;38109;49.488;31.988;2023-06-10T10:54:18;2.47;;;2.28;;
52112;SDS011;38109;49.488;31.988;2023-06-10T11:02:17;2.63;;;2.40;;
52112;SDS011;38109;49.488;31.988;2023-06-10T11:05:03;2.92;;;2.40;;
52112;SDS011;38109;49.488;31.988;2023-06-10T11:07:31;2.70;;;2.50;;
52112;SDS011;38109;49.488;31.988;2023-06-10T11:15:10;2.75;;;2.50;;
52112;SDS011;38109;49.488;31.988;2023-06-10T11:18:06;2.95;;;2.60;;
52112;SDS011;38109;49.488;31.988;2023-06-10T11:31:33;2.53;;;2.33;;
52112;SDS011;38109;49.488;31.988;2023-06-10T11:36:31;3.30;;;2.70;;
52112;SDS011;38109;49.488;31.988;2023-06-10T11:39:05;5.70;;;2.88;;
52112;SDS011;38109;49.488;31.988;2023-06-10T11:41:31;3.03;;;2.80;;
52112;SDS011;38109;49.488;31.988;2023-06-10T11:44:03;3.00;;;2.67;;
52112;SDS011;38109;49.488;31.988;2023-06-10T11:46:33;2.72;;;2.42;;
52112;SDS011;38109;49.488;31.988;2023-06-10T11:48:59;2.53;;;2.33;;
52112;SDS011;38109;49.488;31.988;2023-06-10T11:51:31;2.95;;;2.60;;
52112;SDS011;38109;49.488;31.988;2023-06-10T11:53:58;2.70;;;2.50;;
52112;SDS011;38109;49.488;31.988;2023-06-10T11:56:28;3.33;;;2.55;;
52112;SDS011;38109;49.488;31.988;2023-06-10T12:01:23;2.88;;;2.55;;
52112;SDS011;38109;49.488;31.988;2023-06-10T12:04:23;3.22;;;2.92;;
52112;SDS011;38109;49.488;31.988;2023-06-10T12:06:47;3.10;;;2.80;;
52112;SDS011;38109;49.488;31.988;2023-06-10T12:09:24;2.80;;;2.55;;
52112;SDS011;38109;49.488;31.988;2023-06-10T12:11:58;3.30;;;2.90;;
52112;SDS011;38109;49.488;31.988;2023-06-10T12:22:41;4.30;;;3.03;;
52112;SDS011;38109;49.488;31.988;2023-06-10T12:25:08;3.47;;;3.08;;
52112;SDS011;38109;49.488;31.988;2023-06-10T12:27:35;3.15;;;2.80;;
52112;SDS011;38109;49.488;31.988;2023-06-10T12:30:02;2.60;;;2.40;;
52112;SDS011;38109;49.488;31.988;2023-06-10T12:32:38;3.38;;;3.08;;
52112;SDS011;38109;49.488;31.988;2023-06-10T12:35:04;3.78;;;3.42;;
52112;SDS011;38109;49.488;31.988;2023-06-10T12:37:30;3.63;;;3.30;;
52112;SDS011;38109;49.488;31.988;2023-06-10T12:39:59;4.00;;;2.65;;
52112;SDS011;38109;49.488;31.988;2023-06-10T12:42:26;3.08;;;2.78;;
52112;SDS011;38109;49.488;31.988;2023-06-10T12:44:54;2.75;;;2.45;;
52112;SDS011;38109;49.488;31.988;2023-06-10T12:47:28;2.90;;;2.60;;
52112;SDS011;38109;49.488;31.988;2023-06-10T12:50:00;3.35;;;2.80;;
52112;SDS011;38109;49.488;31.988;2023-06-10T12:52:26;4.15;;;2.95;;
52112;SDS011;38109;49.488;31.988;2023-06-10T12:54:55;2.95;;;2.70;;
52112;SDS011;38109;49.488;31.988;2023-06-10T12:57:21;3.00;;;2.50;;
52112;SDS011;38109;49.488;31.988;2023-06-10T12:59:47;2.58;;;2.38;;
52112;SDS011;38109;49.488;31.988;2023-06-10T13:02:22;3.13;;;2.75;;
52112;SDS011;38109;49.488;31.988;2023-06-10T13:04:52;3.15;;;2.72;;
52112;SDS011;38109;49.488;31.988;2023-06-10T13:07:18;3.78;;;3.05;;
52112;SDS011;38109;49.488;31.988;2023-06-10T13:09:44;3.50;;;3.20;;
52112;SDS011;38109;49.488;31.988;2023-06-10T13:12:13;3.55;;;3.25;;
52112;SDS011;38109;49.488;31.988;2023-06-10T13:14:39;3.78;;;2.88;;
52112;SDS011;38109;49.488;31.988;2023-06-10T13:17:05;2.83;;;2.58;;
52112;SDS011;38109;49.488;31.988;2023-06-10T13:19:31;2.97;;;2.70;;
52112;SDS011;38109;49.488;31.988;2023-06-10T13:22:00;2.83;;;2.63;;
52112;SDS011;38109;49.488;31.988;2023-06-10T13:24:26;3.10;;;2.80;;
52112;SDS011;38109;49.488;31.988;2023-06-10T13:26:52;3.33;;;2.95;;
52112;SDS011;38109;49.488;31.988;2023-06-10T13:29:18;3.70;;;2.80;;
52112;SDS011;38109;49.488;31.988;2023-06-10T13:31:44;3.20;;;2.90;;
52112;SDS011;38109;49.488;31.988;2023-06-10T13:34:09;3.35;;;3.05;;
52112;SDS011;38109;49.488;31.988;2023-06-10T13:36:35;3.67;;;3.30;;
52112;SDS011;38109;49.488;31.988;2023-06-10T13:39:01;3.58;;;3.20;;
52112;SDS011;38109;49.488;31.988;2023-06-10T13:41:27;3.08;;;2.80;;
52112;SDS011;38109;49.488;31.988;2023-06-10T13:43:55;3.15;;;2.90;;
52112;SDS011;38109;49.488;31.988;2023-06-10T13:46:21;2.70;;;2.50;;
52112;SDS011;38109;49.488;31.988;2023-06-10T13:48:47;2.72;;;2.53;;
52112;SDS011;38109;49.488;31.988;2023-06-10T13:51:13;3.35;;;2.90;;
52112;SDS011;38109;49.488;31.988;2023-06-10T13:53:38;2.90;;;2.42;;
52112;SDS011;38109;49.488;31.988;2023-06-10T13:56:04;2.97;;;2.67;;
52112;SDS011;38109;49.488;31.988;2023-06-10T13:58:30;2.60;;;2.42;;
52112;SDS011;38109;49.488;31.988;2023-06-10T14:00:56;2.70;;;2.50;;
52112;SDS011;38109;49.488;31.988;2023-06-10T14:03:23;3.38;;;3.00;;
52112;SDS011;38109;49.488;31.988;2023-06-10T14:05:49;3.03;;;2.72;;
52112;SDS011;38109;49.488;31.988;2023-06-10T14:08:15;3.20;;;2.72;;
52112;SDS011;38109;49.488;31.988;2023-06-10T14:10:40;2.90;;;2.70;;
52112;SDS011;38109;49.488;31.988;2023-06-10T14:13:06;3.30;;;3.00;;
52112;SDS011;38109;49.488;31.988;2023-06-10T14:15:32;3.38;;;3.08;;
52112;SDS011;38109;49.488;31.988;2023-06-10T14:17:57;3.95;;;3.13;;
52112;SDS011;38109;49.488;31.988;2023-06-10T14:20:23;3.13;;;2.90;;
52112;SDS011;38109;49.488;31.988;2023-06-10T14:22:56;4.57;;;2.85;;
52112;SDS011;38109;49.488;31.988;2023-06-10T14:25:22;3.85;;;3.35;;
52112;SDS011;38109;49.488;31.988;2023-06-10T14:27:47;3.13;;;2.83;;
52112;SDS011;38109;49.488;31.988;2023-06-10T14:30:13;2.83;;;2.63;;
52112;SDS011;38109;49.488;31.988;2023-06-10T14:32:39;3.00;;;2.80;;
52112;SDS011;38109;49.488;31.988;2023-06-10T14:35:05;3.90;;;2.72;;
52112;SDS011;38109;49.488;31.988;2023-06-10T14:37:31;3.38;;;3.03;;
52112;SDS011;38109;49.488;31.988;2023-06-10T14:39:57;2.63;;;2.42;;
52112;SDS011;38109;49.488;31.988;2023-06-10T14:42:22;2.72;;;2.53;;
52112;SDS011;38109;49.488;31.988;2023-06-10T14:44:48;2.97;;;2.70;;
52112;SDS011;38109;49.488;31.988;2023-06-10T14:47:14;4.03;;;2.42;;
52112;SDS011;38109;49.488;31.988;2023-06-10T14:49:40;4.28;;;3.03;;
52112;SDS011;38109;49.488;31.988;2023-06-10T14:52:07;2.80;;;2.60;;
52112;SDS011;38109;49.488;31.988;2023-06-10T14:54:33;2.80;;;2.60;;
52112;SDS011;38109;49.488;31.988;2023-06-10T14:56:59;2.92;;;2.72;;
52112;SDS011;38109;49.488;31.988;2023-06-10T14:59:26;3.38;;;2.88;;
52112;SDS011;38109;49.488;31.988;2023-06-10T15:01:52;3.50;;;3.10;;
52112;SDS011;38109;49.488;31.988;2023-06-10T15:04:17;3.55;;;3.25;;
52112;SDS011;38109;49.488;31.988;2023-06-10T15:06:43;3.00;;;2.70;;
52112;SDS011;38109;49.488;31.988;2023-06-10T15:09:09;3.25;;;2.65;;
52112;SDS011;38109;49.488;31.988;2023-06-10T15:11:35;3.00;;;2.67;;
52112;SDS011;38109;49.488;31.988;2023-06-10T15:14:02;3.22;;;2.92;;